createdAt,value
2023-03-09T00:01:29.060Z,27.65
2023-03-09T00:03:33.379Z,29.63
2023-03-09T00:05:37.778Z,26.05
2023-03-09T00:07:42.197Z,26.63
2023-03-09T00:09:46.761Z,25.98
2023-03-09T00:11:48.843Z,24.95
2023-03-09T00:13:53.755Z,24.45
2023-03-09T00:15:55.337Z,25.55
2023-03-09T00:20:18.770Z,25.88
2023-03-09T00:22:20.385Z,23.67
2023-03-09T00:24:27.526Z,25.27
2023-03-09T00:26:32.318Z,24.38
2023-03-09T00:28:36.415Z,23.27
2023-03-09T00:30:40.880Z,24.15
2023-03-09T00:32:42.446Z,26.25
2023-03-09T00:34:46.509Z,26.02
2023-03-09T00:36:48.068Z,22.67
2023-03-09T00:38:53.383Z,25.30
2023-03-09T00:40:57.792Z,25.27
2023-03-09T00:42:59.205Z,23.23
2023-03-09T00:45:03.485Z,24.05
2023-03-09T00:47:05.197Z,25.83
2023-03-09T00:49:07.390Z,23.55
2023-03-09T00:51:27.981Z,25.40
2023-03-09T00:53:32.148Z,24.92
2023-03-09T00:55:36.621Z,24.48
2023-03-09T00:57:42.503Z,24.33
2023-03-09T00:59:45.615Z,24.02
2023-03-09T01:01:47.243Z,23.23
2023-03-09T01:03:54.347Z,25.50
2023-03-09T01:06:00.209Z,26.25
2023-03-09T01:08:01.815Z,25.23
2023-03-09T01:10:04.073Z,25.23
2023-03-09T01:12:05.863Z,24.67
2023-03-09T01:14:10.317Z,25.33
2023-03-09T01:16:15.078Z,23.65
2023-03-09T01:18:19.727Z,22.85
2023-03-09T01:20:24.236Z,24.85
2023-03-09T01:24:32.589Z,22.73
2023-03-09T01:26:54.121Z,23.23
2023-03-09T01:28:58.501Z,24.52
2023-03-09T01:31:18.755Z,23.27
2023-03-09T01:33:20.286Z,24.92
2023-03-09T01:35:21.908Z,24.63
2023-03-09T01:39:27.245Z,22.33
2023-03-09T01:41:31.589Z,23.17
2023-03-09T01:43:40.693Z,24.83
2023-03-09T01:45:47.860Z,23.02
2023-03-09T01:47:50.067Z,24.75
2023-03-09T01:49:57.482Z,23.27
2023-03-09T01:52:06.887Z,24.10
2023-03-09T01:54:10.125Z,24.17
2023-03-09T01:56:15.559Z,25.65
2023-03-09T01:58:22.103Z,25.00
2023-03-09T02:00:27.244Z,24.83
2023-03-09T02:02:29.905Z,25.88
2023-03-09T02:04:40.767Z,24.25
2023-03-09T02:06:42.217Z,25.50
2023-03-09T02:08:54.077Z,24.02
2023-03-09T02:10:56.981Z,24.60
2023-03-09T02:13:01.999Z,26.58
2023-03-09T02:15:06.755Z,25.77
2023-03-09T02:17:11.835Z,26.67
2023-03-09T02:19:22.373Z,25.05
2023-03-09T02:21:41.195Z,26.15
2023-03-09T02:23:52.062Z,26.58
2023-03-09T02:26:07.072Z,25.15
2023-03-09T02:28:17.522Z,28.25
2023-03-09T02:30:19.721Z,27.45
2023-03-09T02:32:23.977Z,29.73
2023-03-09T02:34:28.829Z,29.40
2023-03-09T02:36:30.628Z,29.30
2023-03-09T02:38:32.199Z,29.83
2023-03-09T02:40:35.520Z,30.67
2023-03-09T02:42:40.417Z,29.85
2023-03-09T02:44:49.055Z,27.80
2023-03-09T02:46:56.585Z,29.02
2023-03-09T02:49:04.183Z,27.92
2023-03-09T02:51:07.232Z,29.48
2023-03-09T02:53:08.900Z,29.80
2023-03-09T02:57:17.493Z,30.23
2023-03-09T02:59:19.205Z,29.52
2023-03-09T03:01:23.496Z,32.72
2023-03-09T03:03:43.898Z,29.48
2023-03-09T03:05:49.042Z,29.88
2023-03-09T03:07:50.574Z,28.00
2023-03-09T03:09:55.116Z,29.23
2023-03-09T03:11:59.623Z,27.77
2023-03-09T03:14:19.776Z,27.08
2023-03-09T03:16:21.374Z,28.25
2023-03-09T03:18:25.825Z,28.52
2023-03-09T03:20:27.363Z,28.08
2023-03-09T03:22:28.766Z,29.00
2023-03-09T03:24:30.462Z,27.88
2023-03-09T03:26:32.199Z,28.50
2023-03-09T03:28:36.489Z,27.05
2023-03-09T03:30:38.017Z,27.63
2023-03-09T03:32:45.519Z,27.75
2023-03-09T03:35:05.878Z,27.92
2023-03-09T03:37:07.473Z,26.52
2023-03-09T03:41:16.046Z,26.48
2023-03-09T03:45:24.424Z,26.15
2023-03-09T03:47:25.870Z,28.33
2023-03-09T03:49:27.610Z,26.85
2023-03-09T03:51:29.132Z,27.83
2023-03-09T03:53:33.442Z,29.05
2023-03-09T03:55:37.952Z,28.60
2023-03-09T03:57:39.480Z,28.45
2023-03-09T04:01:48.184Z,25.98
2023-03-09T04:03:49.757Z,25.38
2023-03-09T04:05:54.187Z,27.60
2023-03-09T04:10:02.510Z,26.05
2023-03-09T04:12:07.007Z,25.92
2023-03-09T04:14:08.491Z,25.52
2023-03-09T04:16:10.009Z,28.52
2023-03-09T04:18:15.054Z,28.25
2023-03-09T04:20:19.162Z,27.33
2023-03-09T04:22:20.761Z,27.05
2023-03-09T04:24:41.122Z,27.67
2023-03-09T04:28:46.618Z,24.05
2023-03-09T04:30:48.230Z,26.83
2023-03-09T04:32:49.889Z,26.23
2023-03-09T04:34:51.463Z,26.77
2023-03-09T04:36:53.013Z,28.50
2023-03-09T04:38:54.549Z,26.73
2023-03-09T04:40:56.024Z,28.17
2023-03-09T04:42:57.541Z,28.10
2023-03-09T04:47:07.287Z,26.20
2023-03-09T04:49:11.376Z,27.92
2023-03-09T04:51:12.880Z,28.90
2023-03-09T04:53:32.863Z,28.50
2023-03-09T04:55:52.807Z,27.42
2023-03-09T04:57:56.993Z,28.60
2023-03-09T04:59:58.454Z,28.42
2023-03-09T05:02:18.702Z,28.05
2023-03-09T05:04:23.069Z,29.25
2023-03-09T05:06:30.564Z,27.60
2023-03-09T05:08:35.132Z,27.00
2023-03-09T05:10:36.810Z,28.70
2023-03-09T05:12:38.352Z,30.20
2023-03-09T05:14:42.669Z,28.35
2023-03-09T05:16:49.530Z,27.52
2023-03-09T05:18:51.320Z,28.48
2023-03-09T05:21:11.573Z,27.85
2023-03-09T05:23:13.601Z,27.38
2023-03-09T05:25:15.052Z,28.88
2023-03-09T05:27:16.614Z,27.05
2023-03-09T05:29:26.325Z,30.95
2023-03-09T05:31:55.062Z,29.27
2023-03-09T05:34:15.217Z,28.92
2023-03-09T05:36:34.310Z,30.27
2023-03-09T05:38:57.883Z,28.92
2023-03-09T05:41:17.783Z,28.13
2023-03-09T05:43:38.643Z,28.58
2023-03-09T05:46:04.268Z,29.33
2023-03-09T05:48:22.320Z,29.13
2023-03-09T05:50:42.047Z,27.17
2023-03-09T05:53:00.735Z,28.90
2023-03-09T05:55:20.326Z,24.95
2023-03-09T05:57:36.225Z,29.33
2023-03-09T05:59:51.466Z,29.98
2023-03-09T06:02:11.224Z,26.48
2023-03-09T06:04:24.728Z,27.88
2023-03-09T06:06:31.313Z,32.80
2023-03-09T06:08:35.481Z,30.55
2023-03-09T06:10:37.379Z,29.13
2023-03-09T06:12:41.741Z,29.38
2023-03-09T06:14:43.264Z,26.88
2023-03-09T06:16:44.782Z,28.10
2023-03-09T06:18:49.388Z,25.95
2023-03-09T06:20:53.425Z,27.85
2023-03-09T06:22:55.029Z,25.75
2023-03-09T06:24:56.564Z,28.42
2023-03-09T06:26:58.852Z,27.60
2023-03-09T06:29:00.300Z,27.38
2023-03-09T06:31:05.977Z,27.70
2023-03-09T06:33:07.564Z,24.85
2023-03-09T06:35:09.122Z,27.77
2023-03-09T06:37:10.583Z,25.65
2023-03-09T06:39:14.723Z,26.33
2023-03-09T06:41:16.938Z,25.48
2023-03-09T06:43:18.429Z,25.55
2023-03-09T06:47:26.946Z,25.45
2023-03-09T06:49:28.409Z,26.45
2023-03-09T06:51:33.055Z,25.27
2023-03-09T06:53:34.558Z,26.65
2023-03-09T06:55:37.100Z,24.48
2023-03-09T06:57:38.772Z,29.67
2023-03-09T06:59:40.280Z,26.40
2023-03-09T07:01:44.389Z,25.55
2023-03-09T07:03:46.940Z,26.15
2023-03-09T07:05:51.513Z,24.92
2023-03-09T07:07:55.964Z,25.52
2023-03-09T07:10:00.290Z,24.95
2023-03-09T07:12:05.133Z,23.17
2023-03-09T07:14:09.441Z,23.02
2023-03-09T07:16:31.453Z,23.17
2023-03-09T07:18:32.992Z,24.27
2023-03-09T07:20:34.673Z,26.30
2023-03-09T07:22:36.200Z,23.77
2023-03-09T07:24:38.222Z,24.13
2023-03-09T07:26:42.341Z,25.95
2023-03-09T07:28:43.778Z,26.50
2023-03-09T07:30:45.292Z,28.20
2023-03-09T07:32:46.810Z,27.70
2023-03-09T07:34:51.168Z,26.60
2023-03-09T07:36:55.481Z,30.70
2023-03-09T07:39:02.911Z,28.90
2023-03-09T07:41:04.548Z,27.80
2023-03-09T07:43:24.742Z,28.08
2023-03-09T07:45:29.312Z,27.58
2023-03-09T07:47:32.599Z,28.75
2023-03-09T07:49:34.177Z,28.37
2023-03-09T07:51:36.942Z,29.15
2023-03-09T07:53:40.256Z,28.40
2023-03-09T07:55:44.523Z,27.70
2023-03-09T07:57:49.117Z,26.48
2023-03-09T07:59:54.259Z,27.65
2023-03-09T08:01:55.698Z,25.50
2023-03-09T08:03:57.269Z,25.48
2023-03-09T08:06:01.709Z,25.48
2023-03-09T08:08:22.334Z,29.17
2023-03-09T08:10:24.752Z,26.55
2023-03-09T08:12:28.952Z,25.25
2023-03-09T08:14:30.519Z,24.70
2023-03-09T08:16:32.093Z,25.60
2023-03-09T08:18:33.605Z,24.65
2023-03-09T08:20:35.039Z,26.02
2023-03-09T08:22:39.664Z,24.73
2023-03-09T08:24:43.913Z,23.67
2023-03-09T08:26:45.463Z,25.42
2023-03-09T08:28:47.186Z,23.83
2023-03-09T08:30:51.715Z,24.40
2023-03-09T08:32:56.385Z,23.70
2023-03-09T08:35:02.965Z,23.52
2023-03-09T08:37:11.010Z,22.98
2023-03-09T08:39:20.781Z,23.75
2023-03-09T08:41:32.690Z,23.52
2023-03-09T08:43:46.085Z,23.27
2023-03-09T08:46:03.016Z,24.02
2023-03-09T08:48:17.445Z,24.58
2023-03-09T08:50:33.445Z,26.45
2023-03-09T08:52:45.667Z,26.67
2023-03-09T08:55:00.010Z,25.38
2023-03-09T08:57:16.915Z,26.83
2023-03-09T08:59:29.180Z,25.33
2023-03-09T09:01:55.732Z,25.40
2023-03-09T09:04:14.482Z,27.33
2023-03-09T09:06:24.866Z,28.25
2023-03-09T09:08:32.997Z,25.85
2023-03-09T09:10:51.919Z,25.73
2023-03-09T09:12:58.916Z,24.73
2023-03-09T09:15:00.601Z,26.23
2023-03-09T09:17:02.144Z,29.00
2023-03-09T09:19:09.749Z,28.50
2023-03-09T09:21:14.060Z,27.58
2023-03-09T09:23:19.131Z,27.10
2023-03-09T09:25:38.774Z,27.70
2023-03-09T09:27:58.615Z,28.27
2023-03-09T09:30:00.128Z,28.50
2023-03-09T09:32:01.887Z,26.63
2023-03-09T09:34:03.354Z,26.33
2023-03-09T09:36:25.926Z,26.23
2023-03-09T09:38:28.331Z,25.67
2023-03-09T09:40:30.100Z,25.67
2023-03-09T09:42:38.967Z,24.27
2023-03-09T09:44:45.315Z,24.15
2023-03-09T09:46:47.349Z,20.58
2023-03-09T09:48:51.840Z,23.17
2023-03-09T09:51:31.273Z,20.10
2023-03-09T09:53:38.548Z,18.98
2023-03-09T09:55:43.383Z,19.85
2023-03-09T09:57:46.264Z,17.60
2023-03-09T10:00:06.108Z,15.80
2023-03-09T10:02:41.101Z,14.23
2023-03-09T10:04:46.641Z,14.25
2023-03-09T10:06:49.519Z,13.43
2023-03-09T10:08:59.636Z,14.05
2023-03-09T10:11:10.201Z,12.10
2023-03-09T10:13:15.721Z,10.35
2023-03-09T10:15:30.287Z,9.00
2023-03-09T10:17:44.177Z,11.48
2023-03-09T10:20:33.819Z,11.57
2023-03-09T10:22:35.581Z,14.60
2023-03-09T10:24:41.794Z,11.20
2023-03-09T10:26:52.387Z,16.42
2023-03-09T10:28:58.412Z,9.77
2023-03-09T10:31:19.397Z,12.23
2023-03-09T10:33:27.182Z,9.50
2023-03-09T10:35:31.410Z,10.13
2023-03-09T10:37:35.051Z,9.38
2023-03-09T10:39:42.683Z,9.60
2023-03-09T10:41:44.315Z,13.15
2023-03-09T10:43:46.004Z,10.68
2023-03-09T10:45:47.594Z,10.07
2023-03-09T10:50:24.233Z,8.55
2023-03-09T10:52:29.676Z,8.30
2023-03-09T10:54:36.077Z,13.18
2023-03-09T10:56:56.222Z,9.45
2023-03-09T10:59:07.683Z,11.60
2023-03-09T11:01:27.892Z,10.75
2023-03-09T11:03:34.070Z,10.43
2023-03-09T11:05:36.394Z,7.95
2023-03-09T11:07:40.682Z,10.75
2023-03-09T11:09:42.091Z,9.93
2023-03-09T11:11:47.805Z,9.43
2023-03-09T11:13:49.365Z,10.32
2023-03-09T11:16:04.782Z,8.90
2023-03-09T11:18:29.123Z,9.90
2023-03-09T11:20:39.830Z,10.35
2023-03-09T11:22:45.940Z,9.02
2023-03-09T11:24:50.639Z,10.48
2023-03-09T11:26:58.615Z,11.15
2023-03-09T11:29:03.120Z,9.60
2023-03-09T11:31:11.306Z,10.27
2023-03-09T11:33:17.827Z,11.73
2023-03-09T11:35:23.708Z,9.80
2023-03-09T11:37:53.340Z,9.65
2023-03-09T11:40:07.704Z,10.55
2023-03-09T11:42:19.071Z,11.25
2023-03-09T11:44:43.374Z,8.95
2023-03-09T11:46:48.190Z,9.48
2023-03-09T11:49:17.243Z,12.02
2023-03-09T11:51:22.652Z,8.27
2023-03-09T11:53:28.796Z,9.25
2023-03-09T11:55:51.475Z,11.50
2023-03-09T11:57:59.935Z,8.68
2023-03-09T12:00:07.904Z,7.85
2023-03-09T12:02:20.159Z,7.93
2023-03-09T12:04:25.684Z,8.13
2023-03-09T12:06:37.124Z,7.70
2023-03-09T12:08:46.680Z,7.70
2023-03-09T12:10:59.027Z,7.63
2023-03-09T12:13:11.351Z,7.45
2023-03-09T12:15:41.989Z,6.57
2023-03-09T12:17:54.660Z,6.43
2023-03-09T12:19:59.670Z,5.15
2023-03-09T12:22:06.630Z,5.95
2023-03-09T12:26:15.549Z,4.45
2023-03-09T12:28:21.937Z,5.85
2023-03-09T12:30:24.833Z,5.57
2023-03-09T12:32:26.410Z,4.55
2023-03-09T12:34:39.974Z,6.47
2023-03-09T12:36:44.262Z,7.97
2023-03-09T12:40:50.929Z,6.05
2023-03-09T12:42:56.456Z,4.72
2023-03-09T12:44:58.964Z,5.82
2023-03-09T12:47:03.800Z,4.40
2023-03-09T12:49:12.254Z,5.90
2023-03-09T12:51:21.109Z,6.30
2023-03-09T12:53:26.892Z,6.45
2023-03-09T12:55:34.980Z,7.22
2023-03-09T12:58:15.086Z,6.80
2023-03-09T13:00:19.682Z,6.82
2023-03-09T13:02:32.874Z,6.55
2023-03-09T13:04:34.472Z,7.30
2023-03-09T13:06:57.540Z,5.90
2023-03-09T13:09:01.329Z,8.70
2023-03-09T13:11:21.307Z,6.90
2023-03-09T13:13:28.098Z,7.35
2023-03-09T13:15:29.553Z,7.65
2023-03-09T13:17:31.047Z,5.30
2023-03-09T13:21:40.672Z,7.57
2023-03-09T13:23:44.131Z,7.80
2023-03-09T13:25:49.542Z,7.45
2023-03-09T13:27:53.191Z,4.85
2023-03-09T13:30:03.845Z,6.07
2023-03-09T13:32:18.297Z,5.60
2023-03-09T13:34:31.984Z,6.28
2023-03-09T13:36:34.109Z,5.17
2023-03-09T13:38:38.021Z,4.57
2023-03-09T13:40:48.334Z,5.55
2023-03-09T13:42:53.530Z,4.70
2023-03-09T13:44:55.908Z,5.70
2023-03-09T13:46:58.270Z,5.20
2023-03-09T13:49:08.070Z,7.68
2023-03-09T13:51:26.023Z,5.55
2023-03-09T13:53:33.089Z,4.70
2023-03-09T13:55:37.554Z,5.10
2023-03-09T13:57:41.891Z,4.25
2023-03-09T13:59:45.960Z,5.55
2023-03-09T14:01:47.508Z,5.03
2023-03-09T14:03:50.034Z,5.40
2023-03-09T14:08:19.671Z,4.63
2023-03-09T14:10:40.445Z,4.10
2023-03-09T14:12:45.596Z,4.70
2023-03-09T14:14:47.189Z,4.95
2023-03-09T14:17:15.985Z,4.00
2023-03-09T14:19:35.993Z,4.72
2023-03-09T14:21:37.503Z,3.67
2023-03-09T14:25:43.759Z,3.72
2023-03-09T14:27:48.081Z,3.47
2023-03-09T14:29:53.545Z,3.38
2023-03-09T14:32:16.581Z,3.20
2023-03-09T14:34:20.798Z,2.90
2023-03-09T14:36:22.367Z,3.28
2023-03-09T14:38:24.140Z,3.45
2023-03-09T14:40:29.318Z,5.57
2023-03-09T14:42:34.906Z,5.10
2023-03-09T14:44:44.839Z,5.45
2023-03-09T14:46:57.242Z,4.78
2023-03-09T14:49:11.843Z,6.32
2023-03-09T14:51:41.890Z,5.40
2023-03-09T14:54:06.944Z,6.25
2023-03-09T14:56:15.984Z,6.30
2023-03-09T14:58:18.895Z,7.50
2023-03-09T15:00:27.726Z,6.18
2023-03-09T15:02:38.643Z,8.55
2023-03-09T15:04:54.438Z,7.40
2023-03-09T15:07:23.069Z,5.35
2023-03-09T15:09:32.839Z,6.88
2023-03-09T15:11:40.192Z,6.10
2023-03-09T15:13:50.113Z,6.88
2023-03-09T15:15:58.005Z,5.63
2023-03-09T15:18:02.797Z,6.17
2023-03-09T15:20:14.092Z,5.78
2023-03-09T15:22:20.951Z,6.78
2023-03-09T15:24:25.151Z,8.02
2023-03-09T15:26:31.639Z,5.13
2023-03-09T15:28:36.103Z,4.80
2023-03-09T15:30:40.209Z,4.50
2023-03-09T15:33:00.299Z,4.88
2023-03-09T15:35:20.965Z,4.00
2023-03-09T15:37:28.261Z,5.90
2023-03-09T15:39:29.918Z,4.53
2023-03-09T15:41:31.418Z,5.75
2023-03-09T15:43:35.947Z,4.78
2023-03-09T15:45:42.115Z,9.75
2023-03-09T15:47:46.767Z,8.20
2023-03-09T15:49:48.462Z,7.82
2023-03-09T15:51:53.216Z,6.32
2023-03-09T15:53:54.630Z,6.45
2023-03-09T15:58:03.503Z,4.90
2023-03-09T16:00:06.532Z,5.35
2023-03-09T16:02:27.176Z,6.60
2023-03-09T16:04:31.502Z,7.82
2023-03-09T16:06:35.731Z,5.53
2023-03-09T16:08:56.181Z,5.93
2023-03-09T16:10:57.811Z,5.43
2023-03-09T16:12:59.376Z,5.90
2023-03-09T16:15:04.508Z,5.40
2023-03-09T16:17:06.079Z,7.68
2023-03-09T16:19:07.678Z,6.50
2023-03-09T16:21:12.083Z,5.50
2023-03-09T16:23:16.590Z,5.75
2023-03-09T16:27:24.839Z,6.80
2023-03-09T16:29:44.976Z,6.88
2023-03-09T16:31:49.025Z,4.82
2023-03-09T16:33:54.502Z,3.90
2023-03-09T16:35:56.920Z,5.13
2023-03-09T16:38:01.352Z,5.57
2023-03-09T16:40:05.883Z,4.90
2023-03-09T16:42:10.141Z,4.45
2023-03-09T16:44:23.598Z,3.70
2023-03-09T16:46:26.030Z,6.35
2023-03-09T16:48:30.180Z,3.50
2023-03-09T16:50:34.381Z,3.85
2023-03-09T16:52:54.457Z,5.97
2023-03-09T16:55:03.323Z,4.30
2023-03-09T16:57:05.242Z,5.15
2023-03-09T16:59:09.742Z,4.20
2023-03-09T17:01:15.488Z,4.18
2023-03-09T17:03:20.195Z,3.92
2023-03-09T17:05:24.546Z,4.03
2023-03-09T17:07:26.101Z,3.80
2023-03-09T17:11:32.054Z,3.92
2023-03-09T17:13:33.662Z,4.28
2023-03-09T17:15:41.408Z,4.10
2023-03-09T17:17:45.638Z,3.70
2023-03-09T17:19:53.119Z,3.92
2023-03-09T17:21:57.610Z,4.30
2023-03-09T17:23:59.196Z,3.22
2023-03-09T17:26:01.610Z,4.57
2023-03-09T17:28:03.179Z,4.72
2023-03-09T17:30:08.098Z,5.22
2023-03-09T17:32:28.323Z,6.10
2023-03-09T17:34:31.098Z,4.65
2023-03-09T17:36:35.135Z,6.18
2023-03-09T17:38:36.799Z,6.88
2023-03-09T17:40:45.181Z,6.25
2023-03-09T17:42:49.726Z,5.43
2023-03-09T17:44:51.467Z,5.88
2023-03-09T17:46:53.137Z,6.13
2023-03-09T17:48:57.359Z,6.03
2023-03-09T17:51:07.594Z,5.13
2023-03-09T17:53:09.937Z,3.22
2023-03-09T17:55:13.689Z,2.67
2023-03-09T17:57:19.760Z,3.05
2023-03-09T17:59:24.828Z,3.90
2023-03-09T18:01:35.007Z,5.43
2023-03-09T18:03:39.896Z,3.33
2023-03-09T18:05:46.171Z,5.03
2023-03-09T18:07:52.427Z,3.22
2023-03-09T18:09:55.458Z,4.40
2023-03-09T18:12:01.840Z,3.60
2023-03-09T18:14:11.155Z,5.45
2023-03-09T18:16:16.622Z,6.25
2023-03-09T18:18:22.683Z,7.22
2023-03-09T18:20:26.399Z,5.10
2023-03-09T18:22:31.957Z,4.68
2023-03-09T18:24:36.644Z,4.93
2023-03-09T18:26:38.560Z,6.65
2023-03-09T18:28:40.061Z,6.13
2023-03-09T18:32:48.741Z,6.18
2023-03-09T18:34:50.293Z,7.28
2023-03-09T18:36:55.119Z,7.82
2023-03-09T18:38:57.027Z,6.50
2023-03-09T18:40:58.638Z,7.18
2023-03-09T18:43:00.233Z,8.13
2023-03-09T18:45:01.763Z,8.65
2023-03-09T18:47:05.226Z,7.40
2023-03-09T18:49:06.941Z,7.53
2023-03-09T18:51:13.144Z,8.95
2023-03-09T18:53:14.602Z,8.07
2023-03-09T18:55:17.150Z,9.55
2023-03-09T18:57:19.493Z,10.68
2023-03-09T18:59:24.529Z,8.25
2023-03-09T19:01:26.195Z,8.98
2023-03-09T19:03:30.509Z,10.45
2023-03-09T19:07:39.001Z,12.35
2023-03-09T19:09:43.048Z,9.32
2023-03-09T19:11:47.359Z,10.82
2023-03-09T19:13:51.708Z,10.50
2023-03-09T19:16:01.465Z,12.15
2023-03-09T19:18:02.991Z,10.50
2023-03-09T19:20:07.545Z,10.73
2023-03-09T19:22:11.528Z,11.43
2023-03-09T19:24:13.425Z,10.23
2023-03-09T19:26:15.083Z,14.25
2023-03-09T19:28:19.201Z,13.63
2023-03-09T19:30:20.684Z,14.00
2023-03-09T19:32:24.924Z,13.35
2023-03-09T19:34:26.525Z,11.98
2023-03-09T19:36:29.429Z,13.77
2023-03-09T19:38:37.807Z,12.05
2023-03-09T19:40:39.336Z,12.10
2023-03-09T19:42:44.229Z,10.70
2023-03-09T19:44:48.206Z,12.27
2023-03-09T19:48:54.040Z,11.27
2023-03-09T19:51:08.294Z,15.23
2023-03-09T19:53:12.514Z,12.32
2023-03-09T19:55:14.005Z,13.13
2023-03-09T19:57:18.442Z,10.93
2023-03-09T19:59:22.824Z,8.90
2023-03-09T20:01:28.477Z,11.02
2023-03-09T20:03:30.113Z,10.23
2023-03-09T20:05:34.682Z,10.23
2023-03-09T20:09:43.601Z,11.35
2023-03-09T20:11:47.960Z,8.85
2023-03-09T20:13:52.307Z,9.30
2023-03-09T20:16:00.035Z,8.70
2023-03-09T20:18:01.962Z,13.32
2023-03-09T20:20:03.459Z,9.10
2023-03-09T20:22:08.782Z,8.20
2023-03-09T20:24:17.233Z,8.55
2023-03-09T20:26:23.166Z,9.48
2023-03-09T20:28:27.224Z,10.02
2023-03-09T20:30:29.514Z,7.82
2023-03-09T20:32:33.948Z,7.93
2023-03-09T20:34:35.405Z,10.18
2023-03-09T20:36:37.058Z,9.20
2023-03-09T20:38:41.176Z,8.10
2023-03-09T20:40:43.557Z,7.35
2023-03-09T20:42:45.113Z,8.55
2023-03-09T20:44:49.910Z,8.55
2023-03-09T20:46:51.586Z,8.07
2023-03-09T20:48:53.951Z,7.45
2023-03-09T20:50:55.478Z,5.95
2023-03-09T20:52:57.032Z,5.80
2023-03-09T20:55:02.104Z,8.18
2023-03-09T20:57:47.406Z,5.22
2023-03-09T21:00:16.369Z,6.30
2023-03-09T21:02:25.207Z,5.95
2023-03-09T21:04:48.543Z,4.95
2023-03-09T21:07:00.625Z,4.57
2023-03-09T21:09:10.652Z,6.22
2023-03-09T21:11:26.010Z,4.68
2023-03-09T21:13:30.940Z,4.75
2023-03-09T21:15:37.713Z,5.93
2023-03-09T21:17:47.279Z,5.28
2023-03-09T21:19:59.910Z,5.18
2023-03-09T21:22:05.953Z,4.70
2023-03-09T21:24:27.229Z,3.78
2023-03-09T21:26:36.221Z,3.85
2023-03-09T21:28:46.151Z,4.32
2023-03-09T21:30:58.842Z,3.50
2023-03-09T21:33:06.572Z,4.07
2023-03-09T21:35:10.929Z,4.60
2023-03-09T21:37:12.691Z,5.07
2023-03-09T21:39:17.044Z,4.40
2023-03-09T21:41:18.743Z,5.07
2023-03-09T21:43:23.310Z,5.90
2023-03-09T21:45:24.758Z,5.03
2023-03-09T21:47:26.175Z,6.32
2023-03-09T21:49:30.511Z,4.43
2023-03-09T21:51:32.002Z,7.35
2023-03-09T21:53:33.802Z,3.97
2023-03-09T21:55:53.869Z,3.58
2023-03-09T21:57:57.124Z,3.88
2023-03-09T22:00:02.072Z,4.90
2023-03-09T22:02:04.054Z,4.32
2023-03-09T22:04:05.792Z,4.45
2023-03-09T22:06:07.325Z,4.05
2023-03-09T22:08:10.144Z,4.88
2023-03-09T22:10:30.427Z,6.55
2023-03-09T22:12:33.566Z,4.30
2023-03-09T22:14:35.126Z,6.63
2023-03-09T22:16:37.077Z,7.10
2023-03-09T22:18:38.593Z,6.47
2023-03-09T22:21:02.787Z,5.88
2023-03-09T22:23:07.001Z,6.75
2023-03-09T22:25:11.971Z,6.82
2023-03-09T22:27:13.597Z,6.53
2023-03-09T22:29:17.759Z,6.70
2023-03-09T22:31:19.281Z,7.30
2023-03-09T22:33:34.328Z,6.43
2023-03-09T22:35:36.884Z,5.68
2023-03-09T22:39:45.567Z,4.15
2023-03-09T22:41:50.019Z,4.07
2023-03-09T22:43:52.082Z,5.63
2023-03-09T22:46:13.436Z,4.53
2023-03-09T22:48:14.911Z,5.57
2023-03-09T22:50:16.514Z,3.83
2023-03-09T22:52:18.049Z,5.07
2023-03-09T22:54:37.933Z,2.63
2023-03-09T22:56:43.506Z,4.03
2023-03-09T22:58:45.554Z,4.18
2023-03-09T23:01:13.833Z,4.32
2023-03-09T23:03:18.315Z,3.05
2023-03-09T23:05:19.846Z,5.65
2023-03-09T23:07:39.922Z,6.53
2023-03-09T23:09:46.944Z,6.07
2023-03-09T23:11:48.681Z,5.72
2023-03-09T23:13:50.281Z,7.68
2023-03-09T23:16:07.398Z,4.70
2023-03-09T23:18:09.270Z,7.45
2023-03-09T23:20:16.201Z,5.13
2023-03-09T23:22:36.834Z,7.10
2023-03-09T23:24:56.709Z,6.10
2023-03-09T23:27:00.824Z,4.88
2023-03-09T23:31:11.188Z,4.88
2023-03-09T23:33:12.670Z,4.35
2023-03-09T23:35:14.331Z,5.63
2023-03-09T23:37:15.912Z,6.00
2023-03-09T23:39:17.391Z,4.93
2023-03-09T23:41:19.452Z,5.50
2023-03-09T23:43:23.929Z,4.93
2023-03-09T23:45:25.405Z,5.05
2023-03-09T23:47:29.790Z,4.43
2023-03-09T23:49:34.116Z,5.20
2023-03-09T23:51:38.651Z,5.82
2023-03-09T23:53:40.627Z,4.28
2023-03-09T23:55:44.817Z,3.85
2023-03-09T23:57:49.142Z,5.40
2023-03-09T23:59:54.031Z,4.82
